ปักกิ่ง, Beijing

05:55 AM CST วัน สิงหาคม 05, 2015 (GMT +0800)
Beijing Capital | | Change Station
CLOSE
Current Station
Airport
Location: Beijing,
Elevation: 115 ft
Nearby Weather Stations

Elev 115 ft 40.07 °N, 116.59 °E | Updated 25 minutes ago

Mist
หมอก
72 ฟาเรนไฮน์
Feels Like 72 ฟาเรนไฮน์
N
4
ลม ความผันแปร ลม from ทางทิศตะวันออกและทิศตะวันออกเฉียงเหนือ

วันนี้
High -- | Low -- ฟาเรนไฮน์
--% Chance of Precip.
Yesterday
High -- | Low -- ฟาเรนไฮน์
Precip. -- นิ้ว
5:14 AM 7:23 PM
ข้างแรม, 74% visible
ความดัน 29.59 นิ้ว
ทัศนวิสัย 3.1 ไมล์
เมฆ
อุณหภูมิที่อากาศอาจจับตัวเป็นหยาดน้ำค้าง 72 ฟาเรนไฮน์
ความชื้น 100%
Rainfall 0.00 นิ้ว
Snow Depth Not available.
UV Not available.
Pollen Not available.
Air Quality Not available.
Flu Activity Not available.
METAR ZBAA 042130Z 06002MPS 5000 BR NSC 22/22 Q1002 NOSIG

More Conditions Fewer Conditions

ความดัน 29.59 นิ้ว
ทัศนวิสัย 3.1 ไมล์
เมฆ
อุณหภูมิที่อากาศอาจจับตัวเป็นหยาดน้ำค้าง 72 ฟาเรนไฮน์
ความชื้น 100%
Rainfall 0.00 นิ้ว
Snow Depth Not available.
UV Not available.
Pollen Not available.
Air Quality Not available.
Flu Activity Not available.
METAR ZBAA 042130Z 06002MPS 5000 BR NSC 22/22 Q1002 NOSIG

More Conditions Fewer Conditions

10-Day Weather Forecast

×

Almanac

ดาราศาสตร์

Aug. 05, 2015 Rise Set
Actual Time
Civil Twilight
Nautical Twilight
Astronomical Twilight
Moon
Length Of Visible Light
ความยาวของวัน
Tomorrow will be .
, % of the Moon is Illuminated

Today's Extremes

Country Highs Country Lows

Community

WunderPhotos

Upload Photos

1,843,992 photos uploaded!

WunderBlogs® & News

Nearby

Air Quality

  Air Quality AQ Index Pollutant
Not available.

Snow Depth

Station Depth Elevation

Earthquake Activity

City Distance Mag. Time & Date
Minimum magnitude displayed is 2.5.

Coastal Water Temperatures

สถานที่ อุณหภูมิ

Stations

Nearby Weather Stations

Station Location Temp ลมหนาว อุณหภูมิที่อากาศอาจจับตัวเป็นหยาดน้ำค้าง ความชื้น ลม Precip. Elev ปรับปรุงล่าสุด Type